createdAt,value
2023-02-14T00:02:26.991Z,39.09
2023-02-14T00:04:57.746Z,39.27
2023-02-14T00:07:28.567Z,39.28
2023-02-14T00:09:59.115Z,40.06
2023-02-14T00:12:29.631Z,40.30
2023-02-14T00:15:18.198Z,40.31
2023-02-14T00:17:48.805Z,39.84
2023-02-14T00:20:19.710Z,39.37
2023-02-14T00:22:50.629Z,40.36
2023-02-14T00:25:21.100Z,40.39
2023-02-14T00:27:51.691Z,39.72
2023-02-14T00:30:22.224Z,39.56
2023-02-14T00:32:52.987Z,39.81
2023-02-14T00:35:24.559Z,39.39
2023-02-14T00:37:55.338Z,40.49
2023-02-14T00:40:25.969Z,40.69
2023-02-14T00:42:57.474Z,41.86
2023-02-14T00:45:28.037Z,42.52
2023-02-14T00:47:58.598Z,41.75
2023-02-14T00:50:29.193Z,42.15
2023-02-14T00:52:59.639Z,41.36
2023-02-14T00:55:30.230Z,42.38
2023-02-14T00:58:00.770Z,40.32
2023-02-14T01:00:31.419Z,40.58
2023-02-14T01:03:02.041Z,41.37
2023-02-14T01:05:32.712Z,40.79
2023-02-14T01:08:03.203Z,40.42
2023-02-14T01:10:34.013Z,41.31
2023-02-14T01:13:05.745Z,40.50
2023-02-14T01:15:41.881Z,41.50
2023-02-14T01:18:12.740Z,41.38
2023-02-14T01:20:43.337Z,41.34
2023-02-14T01:23:14.047Z,40.82
2023-02-14T01:25:44.657Z,40.37
2023-02-14T01:28:15.142Z,40.77
2023-02-14T01:30:45.695Z,40.29
2023-02-14T01:33:16.144Z,40.42
2023-02-14T01:35:46.637Z,40.12
2023-02-14T01:38:17.202Z,40.58
2023-02-14T01:40:47.703Z,40.16
2023-02-14T01:43:18.208Z,39.81
2023-02-14T01:45:50.035Z,39.81
2023-02-14T01:48:23.194Z,40.30
2023-02-14T01:50:55.761Z,41.53
2023-02-14T01:53:29.096Z,41.02
2023-02-14T01:56:02.498Z,39.68
2023-02-14T01:58:36.619Z,40.66
2023-02-14T02:01:07.343Z,40.86
2023-02-14T02:03:41.631Z,41.54
2023-02-14T02:06:18.342Z,40.29
2023-02-14T02:08:51.688Z,40.47
2023-02-14T02:11:23.415Z,40.20
2023-02-14T02:13:54.079Z,40.25
2023-02-14T02:16:33.481Z,39.92
2023-02-14T02:19:08.108Z,40.43
2023-02-14T02:22:04.418Z,39.67
2023-02-14T02:24:51.229Z,41.01
2023-02-14T02:27:30.565Z,40.48
2023-02-14T02:30:06.601Z,40.49
2023-02-14T02:32:56.840Z,40.00
2023-02-14T02:35:53.039Z,40.81
2023-02-14T02:38:42.014Z,40.61
2023-02-14T02:41:18.128Z,40.34
2023-02-14T02:43:57.737Z,40.97
2023-02-14T02:46:49.399Z,41.47
2023-02-14T02:49:52.229Z,41.11
2023-02-14T02:52:52.791Z,41.19
2023-02-14T02:55:26.630Z,39.99
2023-02-14T02:57:58.216Z,40.66
2023-02-14T03:00:29.107Z,40.57
2023-02-14T03:03:18.615Z,39.99
2023-02-14T03:05:50.503Z,39.92
2023-02-14T03:08:21.059Z,39.54
2023-02-14T03:10:53.163Z,40.87
2023-02-14T03:13:26.938Z,40.15
2023-02-14T03:16:09.171Z,40.95
2023-02-14T03:19:06.659Z,40.54
2023-02-14T03:21:40.081Z,40.64
2023-02-14T03:24:31.163Z,42.47
2023-02-14T03:27:19.894Z,40.52
2023-02-14T03:29:59.128Z,40.61
2023-02-14T03:32:50.669Z,40.81
2023-02-14T03:35:33.111Z,41.89
2023-02-14T03:38:12.499Z,40.34
2023-02-14T03:41:05.825Z,39.96
2023-02-14T03:43:51.173Z,40.02
2023-02-14T03:46:27.383Z,40.96
2023-02-14T03:49:01.323Z,40.20
2023-02-14T03:51:34.722Z,39.82
2023-02-14T03:54:09.366Z,40.02
2023-02-14T03:56:48.668Z,39.60
2023-02-14T03:59:25.245Z,40.21
2023-02-14T04:02:13.684Z,40.13
2023-02-14T04:04:47.343Z,39.91
2023-02-14T04:07:20.843Z,39.88
2023-02-14T04:09:51.972Z,40.59
2023-02-14T04:12:36.889Z,40.19
2023-02-14T04:14:54.789Z,40.47
2023-02-14T04:17:43.353Z,40.51
2023-02-14T04:20:14.384Z,40.78
2023-02-14T04:22:46.518Z,40.17
2023-02-14T04:25:17.499Z,41.87
2023-02-14T04:27:48.000Z,40.01
2023-02-14T04:30:21.856Z,39.91
2023-02-14T04:32:52.347Z,40.03
2023-02-14T04:35:22.811Z,40.74
2023-02-14T04:37:53.400Z,40.11
2023-02-14T04:40:25.158Z,40.58
2023-02-14T04:42:55.692Z,40.34
2023-02-14T04:45:26.273Z,40.58
2023-02-14T04:47:56.756Z,40.60
2023-02-14T04:50:27.258Z,41.35
2023-02-14T04:52:57.738Z,40.84
2023-02-14T04:55:30.150Z,40.49
2023-02-14T04:58:00.792Z,41.50
2023-02-14T05:00:31.293Z,41.05
2023-02-14T05:03:01.919Z,41.54
2023-02-14T05:05:32.551Z,40.76
2023-02-14T05:08:03.030Z,40.55
2023-02-14T05:10:33.504Z,41.09
2023-02-14T05:13:05.166Z,39.97
2023-02-14T05:15:38.340Z,39.77
2023-02-14T05:18:07.956Z,40.11
2023-02-14T05:20:38.591Z,40.11
2023-02-14T05:23:10.781Z,39.88
2023-02-14T05:25:45.329Z,40.33
2023-02-14T05:28:15.787Z,42.01
2023-02-14T05:30:46.997Z,41.81
2023-02-14T05:33:17.656Z,40.48
2023-02-14T05:35:48.333Z,40.73
2023-02-14T05:38:19.391Z,40.82
2023-02-14T05:40:49.849Z,41.37
2023-02-14T05:43:20.375Z,41.60
2023-02-14T05:45:50.936Z,41.51
2023-02-14T05:48:21.734Z,41.97
2023-02-14T05:50:52.520Z,42.27
2023-02-14T05:53:23.143Z,41.79
2023-02-14T05:55:53.663Z,41.43
2023-02-14T05:58:24.286Z,42.99
2023-02-14T06:00:54.855Z,42.65
2023-02-14T06:03:25.426Z,41.69
2023-02-14T06:05:56.099Z,42.43
2023-02-14T06:08:26.613Z,41.79
2023-02-14T06:10:57.443Z,41.11
2023-02-14T06:13:29.315Z,42.11
2023-02-14T06:15:59.866Z,40.60
2023-02-14T06:18:30.360Z,41.83
2023-02-14T06:21:01.221Z,41.81
2023-02-14T06:23:32.354Z,42.82
2023-02-14T06:26:03.924Z,43.37
2023-02-14T06:28:34.604Z,43.38
2023-02-14T06:31:05.670Z,43.02
2023-02-14T06:33:36.534Z,42.90
2023-02-14T06:36:07.602Z,42.96
2023-02-14T06:38:38.129Z,43.15
2023-02-14T06:41:10.715Z,43.50
2023-02-14T06:43:41.373Z,42.98
2023-02-14T06:46:12.573Z,42.55
2023-02-14T06:48:43.202Z,43.20
2023-02-14T06:51:15.437Z,41.92
2023-02-14T06:53:45.907Z,41.77
2023-02-14T06:56:16.418Z,43.15
2023-02-14T06:58:46.917Z,41.47
2023-02-14T07:01:17.392Z,41.62
2023-02-14T07:03:49.175Z,41.13
2023-02-14T07:06:19.717Z,41.52
2023-02-14T07:08:50.298Z,40.57
2023-02-14T07:11:20.759Z,41.04
2023-02-14T07:13:51.359Z,41.16
2023-02-14T07:16:21.981Z,41.46
2023-02-14T07:18:53.156Z,40.98
2023-02-14T07:21:24.099Z,41.40
2023-02-14T07:23:54.712Z,40.79
2023-02-14T07:26:25.396Z,41.52
2023-02-14T07:28:55.985Z,41.29
2023-02-14T07:31:26.709Z,41.43
2023-02-14T07:34:01.493Z,40.43
2023-02-14T07:36:32.023Z,41.48
2023-02-14T07:39:02.715Z,41.21
2023-02-14T07:41:33.353Z,40.83
2023-02-14T07:44:03.988Z,41.42
2023-02-14T07:46:34.438Z,41.23
2023-02-14T07:49:05.537Z,42.56
2023-02-14T07:51:36.115Z,41.03
2023-02-14T07:54:08.163Z,41.05
2023-02-14T07:56:38.717Z,41.16
2023-02-14T07:59:09.503Z,41.67
2023-02-14T08:01:40.276Z,40.30
2023-02-14T08:04:12.766Z,42.21
2023-02-14T08:06:44.244Z,40.60
2023-02-14T08:09:16.374Z,40.31
2023-02-14T08:12:04.724Z,40.55
2023-02-14T08:14:36.136Z,40.71
2023-02-14T08:17:10.963Z,41.04
2023-02-14T08:19:42.428Z,41.63
2023-02-14T08:22:13.419Z,40.90
2023-02-14T08:24:45.233Z,41.15
2023-02-14T08:27:15.807Z,41.52
2023-02-14T08:29:46.395Z,41.29
2023-02-14T08:32:18.548Z,42.06
2023-02-14T08:34:50.320Z,41.19
2023-02-14T08:37:21.086Z,41.48
2023-02-14T08:39:51.573Z,41.34
2023-02-14T08:42:23.233Z,42.03
2023-02-14T08:44:54.906Z,41.53
2023-02-14T08:47:26.652Z,42.75
2023-02-14T08:49:57.243Z,40.99
2023-02-14T08:52:27.788Z,40.29
2023-02-14T08:54:58.385Z,41.70
2023-02-14T08:57:29.226Z,40.82
2023-02-14T09:00:00.434Z,41.01
2023-02-14T09:02:31.351Z,39.98
2023-02-14T09:05:01.946Z,40.11
2023-02-14T09:07:32.606Z,39.87
2023-02-14T09:10:03.293Z,40.64
2023-02-14T09:12:33.805Z,39.46
2023-02-14T09:15:05.399Z,40.18
2023-02-14T09:17:37.465Z,39.99
2023-02-14T09:20:12.420Z,40.21
2023-02-14T09:22:44.104Z,39.28
2023-02-14T09:25:15.145Z,39.64
2023-02-14T09:27:45.820Z,39.56
2023-02-14T09:30:17.627Z,39.63
2023-02-14T09:32:48.261Z,39.40
2023-02-14T09:35:25.379Z,38.73
2023-02-14T09:38:02.715Z,38.94
2023-02-14T09:40:34.666Z,39.13
2023-02-14T09:43:25.409Z,40.53
2023-02-14T09:45:59.098Z,39.48
2023-02-14T09:48:39.276Z,39.11
2023-02-14T09:51:17.062Z,39.48
2023-02-14T09:53:53.298Z,39.77
2023-02-14T09:56:31.050Z,38.64
2023-02-14T09:59:14.326Z,38.50
2023-02-14T10:01:47.894Z,38.38
2023-02-14T10:04:39.885Z,38.28
2023-02-14T10:07:19.713Z,38.13
2023-02-14T10:10:08.780Z,37.98
2023-02-14T10:13:03.372Z,38.63
2023-02-14T10:15:43.823Z,38.30
2023-02-14T10:18:17.402Z,38.47
2023-02-14T10:20:51.236Z,38.92
2023-02-14T10:23:25.573Z,38.07
2023-02-14T10:26:04.906Z,38.66
2023-02-14T10:28:47.725Z,39.23
2023-02-14T10:31:30.414Z,38.23
2023-02-14T10:34:18.822Z,38.59
2023-02-14T10:36:59.561Z,38.75
2023-02-14T10:39:48.461Z,39.05
2023-02-14T10:42:34.142Z,38.27
2023-02-14T10:45:30.376Z,37.93
2023-02-14T10:48:01.729Z,38.43
2023-02-14T10:51:01.470Z,37.82
2023-02-14T10:53:51.642Z,38.81
2023-02-14T10:56:30.712Z,37.43
2023-02-14T10:59:04.176Z,37.29
2023-02-14T11:01:36.198Z,37.53
2023-02-14T11:04:09.837Z,37.78
2023-02-14T11:06:40.423Z,37.81
2023-02-14T11:09:12.618Z,37.86
2023-02-14T11:11:57.000Z,37.88
2023-02-14T11:14:30.455Z,37.30
2023-02-14T11:17:03.267Z,38.21
2023-02-14T11:19:37.482Z,37.95
2023-02-14T11:22:09.717Z,37.41
2023-02-14T11:24:46.152Z,37.60
2023-02-14T11:27:19.276Z,37.04
2023-02-14T11:29:53.119Z,37.48
2023-02-14T11:32:29.346Z,38.25
2023-02-14T11:35:09.218Z,38.73
2023-02-14T11:37:48.782Z,36.99
2023-02-14T11:40:34.886Z,36.98
2023-02-14T11:43:19.152Z,36.78
2023-02-14T11:45:52.394Z,37.05
2023-02-14T11:48:38.174Z,36.85
2023-02-14T11:51:06.314Z,37.32
2023-02-14T11:53:49.524Z,37.07
2023-02-14T11:56:22.206Z,37.95
2023-02-14T11:58:59.059Z,37.50
2023-02-14T12:01:40.173Z,37.69
2023-02-14T12:04:20.708Z,37.01
2023-02-14T12:06:51.556Z,37.51
2023-02-14T12:09:30.493Z,37.76
2023-02-14T12:12:06.655Z,37.34
2023-02-14T12:14:39.131Z,37.43
2023-02-14T12:17:13.418Z,36.97
2023-02-14T12:20:02.157Z,37.09
2023-02-14T12:22:35.721Z,37.29
2023-02-14T12:25:28.253Z,37.95
2023-02-14T12:28:08.634Z,38.22
2023-02-14T12:30:39.618Z,36.99
2023-02-14T12:33:19.537Z,37.58
2023-02-14T12:36:08.249Z,37.58
2023-02-14T12:38:53.765Z,37.45
2023-02-14T12:42:03.117Z,37.92
2023-02-14T12:44:48.338Z,37.11
2023-02-14T12:47:30.944Z,38.31
2023-02-14T12:50:21.121Z,38.43
2023-02-14T12:53:12.210Z,37.54
2023-02-14T12:55:51.518Z,36.84
2023-02-14T12:58:32.452Z,38.92
2023-02-14T13:01:28.375Z,37.32
2023-02-14T13:04:20.946Z,37.73
2023-02-14T13:07:00.224Z,36.75
2023-02-14T13:09:50.600Z,37.78
2023-02-14T13:12:39.348Z,37.11
2023-02-14T13:15:29.660Z,37.06
2023-02-14T13:18:03.284Z,36.98
2023-02-14T13:20:42.818Z,37.28
2023-02-14T13:23:25.250Z,37.38
2023-02-14T13:26:15.500Z,36.90
2023-02-14T13:29:13.369Z,37.16
2023-02-14T13:31:44.299Z,37.00
2023-02-14T13:34:37.097Z,36.96
2023-02-14T13:37:10.898Z,36.89
2023-02-14T13:39:47.248Z,36.37
2023-02-14T13:42:51.044Z,38.79
2023-02-14T13:45:37.988Z,37.60
2023-02-14T13:48:18.621Z,37.44
2023-02-14T13:51:01.333Z,36.78
2023-02-14T13:53:34.814Z,37.09
2023-02-14T13:56:08.256Z,36.83
2023-02-14T13:58:40.389Z,36.38
2023-02-14T14:01:37.206Z,37.38
2023-02-14T14:04:32.115Z,37.38
2023-02-14T14:07:08.921Z,37.22
2023-02-14T14:09:48.203Z,37.22
2023-02-14T14:12:31.965Z,36.59
2023-02-14T14:15:17.370Z,36.64
2023-02-14T14:17:50.740Z,36.64
2023-02-14T14:20:24.228Z,37.48
2023-02-14T14:23:00.663Z,36.87
2023-02-14T14:25:43.576Z,36.87
2023-02-14T14:28:22.899Z,36.94
2023-02-14T14:30:53.997Z,37.25
2023-02-14T14:33:33.879Z,37.05
2023-02-14T14:36:10.371Z,37.04
2023-02-14T14:38:54.702Z,37.06
2023-02-14T14:41:32.163Z,38.06
2023-02-14T14:44:03.290Z,38.06
2023-02-14T14:46:34.597Z,37.40
2023-02-14T14:49:06.047Z,36.45
2023-02-14T14:51:38.701Z,37.08
2023-02-14T14:54:19.385Z,36.31
2023-02-14T14:57:02.155Z,36.31
2023-02-14T14:59:36.141Z,36.76
2023-02-14T15:02:26.543Z,36.53
2023-02-14T15:04:57.490Z,36.60
2023-02-14T15:07:33.454Z,36.87
2023-02-14T15:10:04.474Z,35.97
2023-02-14T15:12:54.496Z,35.97
2023-02-14T15:15:26.322Z,36.04
2023-02-14T15:17:57.222Z,36.04
2023-02-14T15:20:28.003Z,36.13
2023-02-14T15:22:58.718Z,36.13
2023-02-14T15:25:32.196Z,36.02
2023-02-14T15:28:03.713Z,36.32
2023-02-14T15:30:38.303Z,36.32
2023-02-14T15:33:10.788Z,35.99
2023-02-14T15:35:44.096Z,36.60
2023-02-14T15:38:15.994Z,36.18
2023-02-14T15:40:47.260Z,37.38
2023-02-14T15:43:32.719Z,37.37
2023-02-14T15:46:23.205Z,36.71
2023-02-14T15:48:55.956Z,37.02
2023-02-14T15:51:32.529Z,37.02
2023-02-14T15:54:09.450Z,36.92
2023-02-14T15:56:46.159Z,36.91
2023-02-14T15:59:26.719Z,36.91
2023-02-14T16:02:00.170Z,36.86
2023-02-14T16:04:36.663Z,37.08
2023-02-14T16:07:15.949Z,37.08
2023-02-14T16:09:46.590Z,36.75
2023-02-14T16:12:32.092Z,37.32
2023-02-14T16:15:21.769Z,36.97
2023-02-14T16:17:53.251Z,37.33
2023-02-14T16:20:32.808Z,37.38
2023-02-14T16:23:21.499Z,37.70
2023-02-14T16:25:53.453Z,37.53
2023-02-14T16:28:24.443Z,38.03
2023-02-14T16:30:57.661Z,37.47
2023-02-14T16:33:31.481Z,37.97
2023-02-14T16:36:09.465Z,37.87
2023-02-14T16:38:46.388Z,37.85
2023-02-14T16:41:22.612Z,37.84
2023-02-14T16:43:53.463Z,37.55
2023-02-14T16:46:35.467Z,37.75
2023-02-14T16:49:06.262Z,38.37
2023-02-14T16:51:37.954Z,39.18
2023-02-14T16:54:11.092Z,38.88
2023-02-14T16:56:51.689Z,38.21
2023-02-14T16:59:22.566Z,38.32
2023-02-14T17:01:53.993Z,38.96
2023-02-14T17:04:24.629Z,39.67
2023-02-14T17:06:57.413Z,40.26
2023-02-14T17:09:33.132Z,40.22
2023-02-14T17:12:07.921Z,39.30
2023-02-14T17:14:39.999Z,39.33
2023-02-14T17:17:12.302Z,39.18
2023-02-14T17:19:42.837Z,40.91
2023-02-14T17:22:15.204Z,40.34
2023-02-14T17:24:46.980Z,40.28
2023-02-14T17:27:18.840Z,40.54
2023-02-14T17:29:51.005Z,40.80
2023-02-14T17:32:21.760Z,40.36
2023-02-14T17:34:52.625Z,39.75
2023-02-14T17:37:23.303Z,39.80
2023-02-14T17:39:54.714Z,39.89
2023-02-14T17:42:25.574Z,39.60
2023-02-14T17:44:56.323Z,40.20
2023-02-14T17:47:26.971Z,41.09
2023-02-14T17:49:58.405Z,39.93
2023-02-14T17:52:29.945Z,39.53
2023-02-14T17:55:00.517Z,39.84
2023-02-14T17:57:31.337Z,40.36
2023-02-14T18:00:02.303Z,40.08
2023-02-14T18:02:33.237Z,40.87
2023-02-14T18:05:04.101Z,40.38
2023-02-14T18:07:35.756Z,40.48
2023-02-14T18:10:08.298Z,39.98
2023-02-14T18:12:38.861Z,40.40
2023-02-14T18:15:10.302Z,41.13
2023-02-14T18:17:40.833Z,41.87
2023-02-14T18:20:12.216Z,41.42
2023-02-14T18:22:42.769Z,41.75
2023-02-14T18:25:13.454Z,41.06
2023-02-14T18:27:43.994Z,40.79
2023-02-14T18:30:15.490Z,41.77
2023-02-14T18:32:46.074Z,40.37
2023-02-14T18:35:18.271Z,40.17
2023-02-14T18:37:49.969Z,41.54
2023-02-14T18:40:20.937Z,42.79
2023-02-14T18:42:51.549Z,41.95
2023-02-14T18:45:22.727Z,41.65
2023-02-14T18:47:53.331Z,41.22
2023-02-14T18:50:23.908Z,41.46
2023-02-14T18:52:54.509Z,42.07
2023-02-14T18:55:25.668Z,43.94
2023-02-14T18:57:57.688Z,42.96
2023-02-14T19:00:29.817Z,42.56
2023-02-14T19:03:02.142Z,43.60
2023-02-14T19:05:33.862Z,44.52
2023-02-14T19:08:06.631Z,42.99
2023-02-14T19:10:38.970Z,42.59
2023-02-14T19:13:09.573Z,41.80
2023-02-14T19:15:40.095Z,42.54
2023-02-14T19:18:10.655Z,41.53
2023-02-14T19:20:41.234Z,41.32
2023-02-14T19:23:12.987Z,41.75
2023-02-14T19:25:44.800Z,43.63
2023-02-14T19:28:15.837Z,43.37
2023-02-14T19:30:46.506Z,42.56
2023-02-14T19:33:18.424Z,43.22
2023-02-14T19:35:50.362Z,41.71
2023-02-14T19:38:20.939Z,41.57
2023-02-14T19:40:51.506Z,42.42
2023-02-14T19:43:22.114Z,42.77
2023-02-14T19:45:53.238Z,41.79
2023-02-14T19:48:24.389Z,41.78
2023-02-14T19:50:55.009Z,41.70
2023-02-14T19:53:25.696Z,42.15
2023-02-14T19:55:56.575Z,41.25
2023-02-14T19:58:27.748Z,41.33
2023-02-14T20:01:01.508Z,41.01
2023-02-14T20:03:34.217Z,40.56
2023-02-14T20:06:06.217Z,40.23
2023-02-14T20:08:36.815Z,40.31
2023-02-14T20:11:07.987Z,40.77
2023-02-14T20:13:38.571Z,40.12
2023-02-14T20:16:11.784Z,40.56
2023-02-14T20:18:42.412Z,39.94
2023-02-14T20:21:18.366Z,40.23
2023-02-14T20:23:48.964Z,41.09
2023-02-14T20:26:21.151Z,40.70
2023-02-14T20:28:53.321Z,40.72
2023-02-14T20:31:24.074Z,41.26
2023-02-14T20:33:56.465Z,40.61
2023-02-14T20:36:27.447Z,40.84
2023-02-14T20:39:00.856Z,40.48
2023-02-14T20:41:34.088Z,40.40
2023-02-14T20:44:10.988Z,40.13
2023-02-14T20:46:41.542Z,42.10
2023-02-14T20:49:12.525Z,41.23
2023-02-14T20:51:46.181Z,40.82
2023-02-14T20:54:17.134Z,40.67
2023-02-14T20:56:50.915Z,40.71
2023-02-14T20:59:29.517Z,40.77
2023-02-14T21:02:00.698Z,40.33
2023-02-14T21:04:33.875Z,40.25
2023-02-14T21:07:07.891Z,40.20
2023-02-14T21:09:39.188Z,41.04
2023-02-14T21:12:11.367Z,39.77
2023-02-14T21:14:44.758Z,40.26
2023-02-14T21:17:20.040Z,40.59
2023-02-14T21:19:52.231Z,41.52
2023-02-14T21:22:24.372Z,40.51
2023-02-14T21:25:00.720Z,40.65
2023-02-14T21:27:34.936Z,40.98
2023-02-14T21:30:10.061Z,40.50
2023-02-14T21:32:43.721Z,40.64
2023-02-14T21:35:15.837Z,40.84
2023-02-14T21:37:48.366Z,40.57
2023-02-14T21:40:23.642Z,39.99
2023-02-14T21:43:00.388Z,39.94
2023-02-14T21:45:52.783Z,39.21
2023-02-14T21:48:43.058Z,40.23
2023-02-14T21:51:16.824Z,40.78
2023-02-14T21:53:50.927Z,41.73
2023-02-14T21:56:28.020Z,40.98
2023-02-14T21:59:02.132Z,41.38
2023-02-14T22:01:40.235Z,41.19
2023-02-14T22:04:13.352Z,42.17
2023-02-14T22:06:45.769Z,40.69
2023-02-14T22:09:20.433Z,40.91
2023-02-14T22:11:51.375Z,41.53
2023-02-14T22:14:24.933Z,40.77
2023-02-14T22:16:58.272Z,40.54
2023-02-14T22:19:32.134Z,40.62
2023-02-14T22:22:05.149Z,41.32
2023-02-14T22:24:37.450Z,41.78
2023-02-14T22:27:10.993Z,41.45
2023-02-14T22:29:44.112Z,41.28
2023-02-14T22:32:18.614Z,41.29
2023-02-14T22:34:54.100Z,39.68
2023-02-14T22:37:25.801Z,39.92
2023-02-14T22:39:58.846Z,39.72
2023-02-14T22:42:30.881Z,40.65
2023-02-14T22:45:06.829Z,41.15
2023-02-14T22:47:40.229Z,41.08
2023-02-14T22:50:15.225Z,40.90
2023-02-14T22:52:46.396Z,40.70
2023-02-14T22:55:19.918Z,39.76
2023-02-14T22:57:52.178Z,39.45
2023-02-14T23:00:23.825Z,40.34
2023-02-14T23:02:56.873Z,40.58
2023-02-14T23:05:28.809Z,39.94
2023-02-14T23:08:03.352Z,40.00
2023-02-14T23:10:36.187Z,40.52
2023-02-14T23:13:27.505Z,39.54
2023-02-14T23:16:16.832Z,39.84
2023-02-14T23:19:11.632Z,40.15
2023-02-14T23:21:59.960Z,38.98
2023-02-14T23:24:32.987Z,39.46
2023-02-14T23:27:06.887Z,38.88
2023-02-14T23:29:39.621Z,38.91
2023-02-14T23:32:17.836Z,38.94
2023-02-14T23:34:52.887Z,39.00
2023-02-14T23:37:27.419Z,38.71
2023-02-14T23:40:02.353Z,39.12
2023-02-14T23:42:34.987Z,40.19
2023-02-14T23:45:27.038Z,40.51
2023-02-14T23:48:00.939Z,39.51
2023-02-14T23:50:33.466Z,40.30
2023-02-14T23:53:07.690Z,39.81
2023-02-14T23:55:40.659Z,39.88
2023-02-14T23:58:12.939Z,39.76
